createdAt,value
2022-09-17T00:00:27.766Z,72815.97
2022-09-17T00:01:03.241Z,72813.97
2022-09-17T00:01:36.207Z,72815.97
2022-09-17T00:02:08.557Z,72813.97
2022-09-17T00:02:45.036Z,72817.94
2022-09-17T00:03:18.173Z,72815.97
2022-09-17T00:03:52.669Z,72813.97
2022-09-17T00:04:28.137Z,72813.97
2022-09-17T00:05:00.434Z,72813.97
2022-09-17T00:05:32.884Z,72809.97
2022-09-17T00:06:07.081Z,72809.97
2022-09-17T00:06:41.984Z,72817.94
2022-09-17T00:07:14.330Z,72811.97
2022-09-17T00:07:46.595Z,72813.97
2022-09-17T00:08:18.902Z,72817.94
2022-09-17T00:08:54.060Z,72809.97
2022-09-17T00:09:26.363Z,72817.94
2022-09-17T00:09:58.683Z,72815.97
2022-09-17T00:10:34.217Z,72819.94
2022-09-17T00:11:07.597Z,72819.94
2022-09-17T00:11:41.482Z,72821.94
2022-09-17T00:12:19.022Z,72823.94
2022-09-17T00:12:51.584Z,72821.94
2022-09-17T00:13:24.347Z,72825.94
2022-09-17T00:14:00.880Z,72825.94
2022-09-17T00:14:33.236Z,72825.94
2022-09-17T00:15:06.815Z,72823.94
2022-09-17T00:15:44.089Z,72825.94
2022-09-17T00:16:23.394Z,72829.94
2022-09-17T00:16:59.948Z,72833.91
2022-09-17T00:17:36.678Z,72821.94
2022-09-17T00:18:08.960Z,72825.94
2022-09-17T00:18:42.102Z,72821.94
2022-09-17T00:19:19.094Z,72821.94
2022-09-17T00:19:51.387Z,72825.94
2022-09-17T00:20:23.686Z,72833.91
2022-09-17T00:20:58.614Z,72825.94
2022-09-17T00:21:31.457Z,72823.94
2022-09-17T00:22:03.794Z,72823.94
2022-09-17T00:22:38.842Z,72823.94
2022-09-17T00:23:12.230Z,72833.91
2022-09-17T00:23:44.602Z,72829.94
2022-09-17T00:24:20.699Z,72837.91
2022-09-17T00:24:52.994Z,72829.94
2022-09-17T00:25:25.430Z,72833.91
2022-09-17T00:26:00.354Z,72829.94
2022-09-17T00:26:33.976Z,72833.91
2022-09-17T00:27:06.444Z,72837.91
2022-09-17T00:27:43.978Z,72833.91
2022-09-17T00:28:16.319Z,72833.91
2022-09-17T00:28:50.563Z,72837.91
2022-09-17T00:29:25.486Z,72845.91
2022-09-17T00:29:57.776Z,72841.91
2022-09-17T00:30:30.112Z,72845.91
2022-09-17T00:31:07.809Z,72837.91
2022-09-17T00:31:40.498Z,72837.91
2022-09-17T00:32:15.438Z,72835.91
2022-09-17T00:32:47.937Z,72843.91
2022-09-17T00:33:21.050Z,72837.91
2022-09-17T00:33:56.061Z,72841.91
2022-09-17T00:34:28.336Z,72837.91
2022-09-17T00:35:00.602Z,72841.91
2022-09-17T00:35:35.591Z,72839.91
2022-09-17T00:36:08.562Z,72843.91
2022-09-17T00:36:41.126Z,72837.91
2022-09-17T00:37:16.038Z,72843.91
2022-09-17T00:37:48.322Z,72837.91
2022-09-17T00:38:20.587Z,72845.91
2022-09-17T00:38:57.261Z,72841.91
2022-09-17T00:39:29.547Z,72845.91
2022-09-17T00:40:02.351Z,72841.91
2022-09-17T00:40:37.529Z,72839.91
2022-09-17T00:41:09.852Z,72845.91
2022-09-17T00:41:42.981Z,72841.91
2022-09-17T00:42:19.352Z,72845.91
2022-09-17T00:42:54.254Z,72843.91
2022-09-17T00:43:38.874Z,72847.88
2022-09-17T00:44:44.381Z,72843.91
2022-09-17T00:45:16.875Z,72847.88
2022-09-17T00:45:49.517Z,72843.91
2022-09-17T00:46:29.403Z,72843.91
2022-09-17T00:47:01.759Z,72845.91
2022-09-17T00:47:35.746Z,72849.88
2022-09-17T00:48:13.456Z,72841.91
2022-09-17T00:48:46.267Z,72845.91
2022-09-17T00:49:21.834Z,72841.91
2022-09-17T00:49:58.815Z,72843.91
2022-09-17T00:50:33.874Z,72841.91
2022-09-17T00:51:07.383Z,72841.91
2022-09-17T00:51:43.723Z,72841.91
2022-09-17T00:52:18.411Z,72841.91
2022-09-17T00:52:52.379Z,72845.91
2022-09-17T00:53:28.450Z,72843.91
2022-09-17T00:54:02.006Z,72843.91
2022-09-17T00:54:34.831Z,72845.91
2022-09-17T00:55:15.790Z,72841.91
2022-09-17T00:55:50.502Z,72843.91
2022-09-17T00:56:25.242Z,72845.91
2022-09-17T00:57:00.881Z,72843.91
2022-09-17T00:57:33.478Z,72849.88
2022-09-17T00:58:14.327Z,72847.88
2022-09-17T00:58:46.979Z,72847.88
2022-09-17T00:59:20.121Z,72845.91
2022-09-17T00:59:55.265Z,72847.88
2022-09-17T01:00:29.024Z,72843.91
2022-09-17T01:01:01.483Z,72845.91
2022-09-17T01:01:37.121Z,72841.91
2022-09-17T01:02:09.636Z,72841.91
2022-09-17T01:02:43.103Z,72837.91
2022-09-17T01:03:18.314Z,72837.91
2022-09-17T01:03:50.906Z,72839.91
2022-09-17T01:04:26.663Z,72833.91
2022-09-17T01:05:01.568Z,72841.91
2022-09-17T01:05:38.013Z,72837.91
2022-09-17T01:06:21.435Z,72833.91
2022-09-17T01:07:04.328Z,72837.91
2022-09-17T01:07:46.418Z,72839.91
2022-09-17T01:08:24.375Z,72837.91
2022-09-17T01:09:13.410Z,72831.94
2022-09-17T01:09:51.426Z,72829.94
2022-09-17T01:10:34.879Z,72829.94
2022-09-17T01:11:28.450Z,72829.94
2022-09-17T01:12:15.415Z,72825.94
2022-09-17T01:12:59.664Z,72825.94
2022-09-17T01:13:44.036Z,72825.94
2022-09-17T01:14:25.059Z,72821.94
2022-09-17T01:15:12.626Z,72819.94
2022-09-17T01:15:50.025Z,72823.94
2022-09-17T01:16:28.536Z,72819.94
2022-09-17T01:17:08.399Z,72823.94
2022-09-17T01:17:44.220Z,72821.94
2022-09-17T01:18:27.298Z,72821.94
2022-09-17T01:19:09.005Z,72823.94
2022-09-17T01:20:17.051Z,72825.94
2022-09-17T01:21:28.085Z,72827.94
2022-09-17T01:22:03.787Z,72825.94
2022-09-17T01:22:39.867Z,72829.94
2022-09-17T01:23:41.681Z,72827.94
2022-09-17T01:24:40.331Z,72829.94
2022-09-17T01:25:25.194Z,72825.94
2022-09-17T01:26:07.295Z,72829.94
2022-09-17T01:27:05.435Z,72833.91
2022-09-17T01:28:19.286Z,72825.94
2022-09-17T01:28:59.867Z,72833.91
2022-09-17T01:29:46.579Z,72831.94
2022-09-17T01:30:41.710Z,72837.91
2022-09-17T01:31:36.110Z,72837.91
2022-09-17T01:32:12.855Z,72835.91
2022-09-17T01:32:47.767Z,72837.91
2022-09-17T01:33:25.374Z,72837.91
2022-09-17T01:34:05.729Z,72835.91
2022-09-17T01:34:43.836Z,72831.94
2022-09-17T01:35:20.594Z,72831.94
2022-09-17T01:36:01.055Z,72835.91
2022-09-17T01:37:02.152Z,72829.94
2022-09-17T01:37:39.698Z,72825.94
2022-09-17T01:38:15.897Z,72833.91
2022-09-17T01:38:53.863Z,72827.94
2022-09-17T01:39:37.379Z,72827.94
2022-09-17T01:40:13.968Z,72825.94
2022-09-17T01:40:51.068Z,72829.94
2022-09-17T01:41:32.381Z,72823.94
2022-09-17T01:42:10.571Z,72825.94
2022-09-17T01:42:50.623Z,72829.94
2022-09-17T01:43:25.552Z,72821.94
2022-09-17T01:43:59.874Z,72821.94
2022-09-17T01:44:40.170Z,72823.94
2022-09-17T01:45:15.858Z,72817.94
2022-09-17T01:45:51.753Z,72817.94
2022-09-17T01:46:30.238Z,72821.94
2022-09-17T01:47:07.082Z,72817.94
2022-09-17T01:47:42.670Z,72817.94
2022-09-17T01:48:20.469Z,72821.94
2022-09-17T01:48:55.502Z,72821.94
2022-09-17T01:49:28.526Z,72821.94
2022-09-17T01:50:05.713Z,72825.94
2022-09-17T01:50:41.290Z,72825.94
2022-09-17T01:51:16.920Z,72825.94
2022-09-17T01:51:50.082Z,72825.94
2022-09-17T01:52:26.480Z,72825.94
2022-09-17T01:52:59.403Z,72817.94
2022-09-17T01:53:35.987Z,72825.94
2022-09-17T01:54:16.126Z,72823.94
2022-09-17T01:54:50.181Z,72825.94
2022-09-17T01:55:25.214Z,72825.94
2022-09-17T01:56:01.613Z,72821.94
2022-09-17T01:56:37.389Z,72829.94
2022-09-17T01:57:14.783Z,72827.94
2022-09-17T01:57:53.331Z,72827.94
2022-09-17T01:58:28.423Z,72829.94
2022-09-17T01:59:03.692Z,72825.94
2022-09-17T01:59:41.450Z,72827.94
2022-09-17T02:00:17.257Z,72823.94
2022-09-17T02:00:56.361Z,72825.94
2022-09-17T02:01:33.295Z,72825.94
2022-09-17T02:02:09.329Z,72831.94
2022-09-17T02:02:46.295Z,72825.94
2022-09-17T02:03:26.586Z,72823.94
2022-09-17T02:04:03.100Z,72829.94
2022-09-17T02:04:37.401Z,72833.91
2022-09-17T02:05:15.457Z,72829.94
2022-09-17T02:05:51.066Z,72831.94
2022-09-17T02:06:27.333Z,72833.91
2022-09-17T02:07:04.928Z,72829.94
2022-09-17T02:07:41.838Z,72821.94
2022-09-17T02:08:16.431Z,72831.94
2022-09-17T02:08:55.434Z,72825.94
2022-09-17T02:09:31.352Z,72829.94
2022-09-17T02:10:06.613Z,72829.94
2022-09-17T02:10:45.051Z,72827.94
2022-09-17T02:11:17.468Z,72831.94
2022-09-17T02:11:52.931Z,72833.91
2022-09-17T02:12:31.921Z,72837.91
2022-09-17T02:13:08.327Z,72837.91
2022-09-17T02:13:44.182Z,72833.91
2022-09-17T02:14:24.074Z,72841.91
2022-09-17T02:14:59.368Z,72841.91
2022-09-17T02:15:35.319Z,72841.91
2022-09-17T02:16:17.141Z,72843.91
2022-09-17T02:16:52.437Z,72843.91
2022-09-17T02:17:29.427Z,72841.91
2022-09-17T02:18:08.997Z,72841.91
2022-09-17T02:18:45.541Z,72837.91
2022-09-17T02:19:23.037Z,72847.88
2022-09-17T02:19:58.901Z,72849.88
2022-09-17T02:20:41.627Z,72847.88
2022-09-17T02:21:17.147Z,72841.91
2022-09-17T02:21:58.209Z,72849.88
2022-09-17T02:22:36.664Z,72845.91
2022-09-17T02:23:13.483Z,72845.91
2022-09-17T02:23:54.217Z,72843.91
2022-09-17T02:24:27.758Z,72847.88
2022-09-17T02:25:05.567Z,72845.91
2022-09-17T02:25:45.482Z,72845.91
2022-09-17T02:26:21.017Z,72845.91
2022-09-17T02:26:58.139Z,72839.91
2022-09-17T02:27:43.162Z,72837.91
2022-09-17T02:28:19.822Z,72837.91
2022-09-17T02:28:54.378Z,72837.91
2022-09-17T02:29:35.629Z,72829.94
2022-09-17T02:30:08.583Z,72833.91
2022-09-17T02:30:40.897Z,72831.94
2022-09-17T02:31:18.556Z,72829.94
2022-09-17T02:31:51.307Z,72829.94
2022-09-17T02:32:25.002Z,72837.91
2022-09-17T02:33:00.014Z,72833.91
2022-09-17T02:33:33.999Z,72835.91
2022-09-17T02:34:08.537Z,72833.91
2022-09-17T02:34:43.566Z,72829.94
2022-09-17T02:35:16.326Z,72833.91
2022-09-17T02:35:48.614Z,72837.91
2022-09-17T02:36:24.825Z,72833.91
2022-09-17T02:36:58.816Z,72833.91
2022-09-17T02:37:31.107Z,72833.91
2022-09-17T02:38:06.003Z,72833.91
2022-09-17T02:38:38.976Z,72837.91
2022-09-17T02:39:11.238Z,72833.91
2022-09-17T02:39:46.286Z,72829.94
2022-09-17T02:40:19.220Z,72829.94
2022-09-17T02:40:55.375Z,72825.94
2022-09-17T02:41:43.788Z,72825.94
2022-09-17T02:42:22.588Z,72825.94
2022-09-17T02:43:06.905Z,72829.94
2022-09-17T02:43:43.294Z,72831.94
2022-09-17T02:44:24.733Z,72831.94
2022-09-17T02:45:05.196Z,72825.94
2022-09-17T02:45:47.714Z,72829.94
2022-09-17T02:46:41.900Z,72829.94
2022-09-17T02:47:48.072Z,72829.94
2022-09-17T02:49:04.319Z,72825.94
2022-09-17T02:50:12.095Z,72825.94
2022-09-17T02:51:32.081Z,72831.94
2022-09-17T02:52:32.909Z,72829.94
2022-09-17T02:53:39.731Z,72821.94
2022-09-17T02:54:36.046Z,72821.94
2022-09-17T02:55:35.844Z,72821.94
2022-09-17T02:56:34.262Z,72821.94
2022-09-17T02:57:33.995Z,72821.94
2022-09-17T02:58:30.291Z,72825.94
2022-09-17T02:59:25.030Z,72821.94
2022-09-17T03:00:00.241Z,72829.94
2022-09-17T03:00:36.190Z,72825.94
2022-09-17T03:01:14.019Z,72829.94
2022-09-17T03:01:53.156Z,72825.94
2022-09-17T03:02:31.397Z,72829.94
2022-09-17T03:03:08.011Z,72829.94
2022-09-17T03:03:46.006Z,72829.94
2022-09-17T03:04:19.402Z,72833.91
2022-09-17T03:04:51.947Z,72827.94
2022-09-17T03:05:27.903Z,72829.94
2022-09-17T03:06:01.101Z,72825.94
2022-09-17T03:06:33.501Z,72825.94
2022-09-17T03:07:09.510Z,72825.94
2022-09-17T03:07:42.042Z,72829.94
2022-09-17T03:08:15.298Z,72833.91
2022-09-17T03:08:50.481Z,72831.94
2022-09-17T03:09:22.772Z,72829.94
2022-09-17T03:09:55.325Z,72823.94
2022-09-17T03:10:33.678Z,72827.94
2022-09-17T03:11:06.555Z,72829.94
2022-09-17T03:11:38.858Z,72825.94
2022-09-17T03:12:14.206Z,72827.94
2022-09-17T03:12:46.511Z,72825.94
2022-09-17T03:13:19.372Z,72829.94
2022-09-17T03:13:54.281Z,72825.94
2022-09-17T03:14:26.683Z,72825.94
2022-09-17T03:14:58.985Z,72823.94
2022-09-17T03:15:33.959Z,72821.94
2022-09-17T03:16:07.423Z,72829.94
2022-09-17T03:16:39.824Z,72821.94
2022-09-17T03:17:17.371Z,72833.91
2022-09-17T03:17:53.245Z,72825.94
2022-09-17T03:18:25.859Z,72829.94
2022-09-17T03:19:00.780Z,72825.94
2022-09-17T03:19:33.178Z,72833.91
2022-09-17T03:20:06.549Z,72829.94
2022-09-17T03:20:41.475Z,72829.94
2022-09-17T03:21:14.093Z,72829.94
2022-09-17T03:21:46.766Z,72829.94
2022-09-17T03:22:21.684Z,72827.94
2022-09-17T03:22:53.966Z,72833.91
2022-09-17T03:23:28.091Z,72827.94
2022-09-17T03:24:03.058Z,72829.94
2022-09-17T03:24:35.371Z,72831.94
2022-09-17T03:25:08.930Z,72825.94
2022-09-17T03:25:44.011Z,72827.94
2022-09-17T03:26:16.510Z,72825.94
2022-09-17T03:26:49.529Z,72833.91
2022-09-17T03:27:24.455Z,72829.94
2022-09-17T03:27:56.763Z,72831.94
2022-09-17T03:28:29.066Z,72827.94
2022-09-17T03:29:03.957Z,72829.94
2022-09-17T03:29:36.297Z,72829.94
2022-09-17T03:30:09.334Z,72829.94
2022-09-17T03:30:45.519Z,72823.94
2022-09-17T03:31:17.886Z,72833.91
2022-09-17T03:31:50.321Z,72829.94
2022-09-17T03:32:27.991Z,72829.94
2022-09-17T03:33:00.310Z,72825.94
2022-09-17T03:33:35.213Z,72825.94
2022-09-17T03:34:07.562Z,72829.94
2022-09-17T03:34:39.825Z,72829.94
2022-09-17T03:35:14.719Z,72825.94
2022-09-17T03:35:47.341Z,72825.94
2022-09-17T03:36:22.239Z,72829.94
2022-09-17T03:36:54.538Z,72833.91
2022-09-17T03:37:32.879Z,72833.91
2022-09-17T03:38:05.652Z,72833.91
2022-09-17T03:38:38.868Z,72839.91
2022-09-17T03:39:13.770Z,72829.94
2022-09-17T03:39:46.049Z,72837.91
2022-09-17T03:40:19.048Z,72825.94
2022-09-17T03:41:01.597Z,72833.91
2022-09-17T03:41:33.894Z,72825.94
2022-09-17T03:42:06.799Z,72825.94
2022-09-17T03:42:41.710Z,72825.94
2022-09-17T03:43:13.987Z,72825.94
2022-09-17T03:43:46.274Z,72829.94
2022-09-17T03:44:23.111Z,72829.94
2022-09-17T03:44:55.387Z,72829.94
2022-09-17T03:45:27.783Z,72831.94
2022-09-17T03:46:03.440Z,72821.94
2022-09-17T03:46:35.850Z,72825.94
2022-09-17T03:47:08.470Z,72825.94
2022-09-17T03:47:45.986Z,72821.94
2022-09-17T03:48:18.270Z,72821.94
2022-09-17T03:48:50.742Z,72829.94
2022-09-17T03:49:26.797Z,72823.94
2022-09-17T03:49:59.210Z,72813.97
2022-09-17T03:50:31.587Z,72817.94
2022-09-17T03:51:07.174Z,72817.94
2022-09-17T03:51:39.477Z,72817.94
2022-09-17T03:52:11.767Z,72815.97
2022-09-17T03:52:46.823Z,72817.94
2022-09-17T03:53:19.143Z,72815.97
2022-09-17T03:53:51.522Z,72817.94
2022-09-17T03:54:26.447Z,72825.94
2022-09-17T03:54:58.730Z,72825.94
2022-09-17T03:55:31.041Z,72821.94
2022-09-17T03:56:08.825Z,72821.94
2022-09-17T03:56:41.090Z,72819.94
2022-09-17T03:57:13.359Z,72819.94
2022-09-17T03:57:48.268Z,72815.97
2022-09-17T03:58:20.576Z,72821.94
2022-09-17T03:58:52.946Z,72825.94
2022-09-17T03:59:27.962Z,72825.94
2022-09-17T04:00:00.269Z,72823.94
2022-09-17T04:00:32.614Z,72825.94
2022-09-17T04:01:07.543Z,72821.94
2022-09-17T04:01:40.041Z,72821.94
2022-09-17T04:02:12.567Z,72823.94
2022-09-17T04:02:50.313Z,72825.94
2022-09-17T04:03:22.654Z,72825.94
2022-09-17T04:03:55.616Z,72823.94
2022-09-17T04:04:30.731Z,72821.94
2022-09-17T04:05:03.007Z,72821.94
2022-09-17T04:05:35.378Z,72831.94
2022-09-17T04:06:10.529Z,72825.94
2022-09-17T04:06:42.847Z,72821.94
2022-09-17T04:07:15.131Z,72825.94
2022-09-17T04:07:50.074Z,72827.94
2022-09-17T04:08:22.442Z,72827.94
2022-09-17T04:08:54.712Z,72825.94
2022-09-17T04:09:30.042Z,72829.94
2022-09-17T04:10:02.590Z,72825.94
2022-09-17T04:10:34.919Z,72825.94
2022-09-17T04:11:10.527Z,72833.91
2022-09-17T04:11:42.797Z,72829.94
2022-09-17T04:12:15.069Z,72833.91
2022-09-17T04:12:49.964Z,72839.91
2022-09-17T04:13:22.285Z,72837.91
2022-09-17T04:13:54.575Z,72829.94
2022-09-17T04:14:29.587Z,72841.91
2022-09-17T04:15:01.897Z,72837.91
2022-09-17T04:15:34.164Z,72839.91
2022-09-17T04:16:09.516Z,72841.91
2022-09-17T04:16:41.882Z,72833.91
2022-09-17T04:17:18.247Z,72841.91
2022-09-17T04:17:58.527Z,72835.91
2022-09-17T04:18:31.121Z,72837.91
2022-09-17T04:19:03.783Z,72835.91
2022-09-17T04:19:38.738Z,72839.91
2022-09-17T04:20:11.035Z,72837.91
2022-09-17T04:20:43.694Z,72841.91
2022-09-17T04:21:18.622Z,72845.91
2022-09-17T04:21:50.914Z,72841.91
2022-09-17T04:22:23.399Z,72841.91
2022-09-17T04:22:58.366Z,72843.91
2022-09-17T04:23:30.698Z,72837.91
2022-09-17T04:24:03.070Z,72835.91
2022-09-17T04:24:37.941Z,72839.91
2022-09-17T04:25:11.690Z,72841.91
2022-09-17T04:25:44.376Z,72841.91
2022-09-17T04:26:19.291Z,72841.91
2022-09-17T04:26:51.701Z,72845.91
2022-09-17T04:27:24.439Z,72845.91
2022-09-17T04:27:59.341Z,72841.91
2022-09-17T04:28:31.666Z,72845.91
2022-09-17T04:29:04.078Z,72841.91
2022-09-17T04:29:39.009Z,72841.91
2022-09-17T04:30:12.369Z,72847.88
2022-09-17T04:30:44.630Z,72845.91
2022-09-17T04:31:19.562Z,72845.91
2022-09-17T04:31:51.882Z,72843.91
2022-09-17T04:32:24.304Z,72841.91
2022-09-17T04:33:01.839Z,72849.88
2022-09-17T04:33:34.176Z,72845.91
2022-09-17T04:34:06.582Z,72845.91
2022-09-17T04:34:41.503Z,72845.91
2022-09-17T04:35:13.842Z,72849.88
2022-09-17T04:35:46.148Z,72845.91
2022-09-17T04:36:21.282Z,72843.91
2022-09-17T04:36:53.566Z,72845.91
2022-09-17T04:37:26.003Z,72845.91
2022-09-17T04:38:01.323Z,72845.91
2022-09-17T04:38:33.735Z,72853.88
2022-09-17T04:39:06.048Z,72847.88
2022-09-17T04:39:40.952Z,72847.88
2022-09-17T04:40:13.384Z,72853.88
2022-09-17T04:40:46.616Z,72845.91
2022-09-17T04:41:21.533Z,72853.88
2022-09-17T04:41:53.861Z,72847.88
2022-09-17T04:42:26.134Z,72851.88
2022-09-17T04:43:03.504Z,72851.88
2022-09-17T04:43:35.934Z,72845.91
2022-09-17T04:44:08.214Z,72849.88
2022-09-17T04:44:43.287Z,72849.88
2022-09-17T04:45:15.862Z,72849.88
2022-09-17T04:45:48.327Z,72849.88
2022-09-17T04:46:23.255Z,72845.91
2022-09-17T04:46:55.738Z,72843.91
2022-09-17T04:47:28.032Z,72849.88
2022-09-17T04:48:05.856Z,72853.88
2022-09-17T04:48:38.174Z,72843.91
2022-09-17T04:49:11.485Z,72845.91
2022-09-17T04:49:46.379Z,72849.88
2022-09-17T04:50:18.738Z,72853.88
2022-09-17T04:50:51.178Z,72849.88
2022-09-17T04:51:26.115Z,72849.88
2022-09-17T04:51:58.417Z,72853.88
2022-09-17T04:52:31.200Z,72849.88
2022-09-17T04:53:06.170Z,72851.88
2022-09-17T04:53:38.642Z,72853.88
2022-09-17T04:54:10.962Z,72851.88
2022-09-17T04:54:45.858Z,72853.88
2022-09-17T04:55:18.243Z,72861.88
2022-09-17T04:55:50.563Z,72857.88
2022-09-17T04:56:25.466Z,72853.88
2022-09-17T04:56:58.169Z,72851.88
2022-09-17T04:57:30.496Z,72853.88
2022-09-17T04:58:05.394Z,72851.88
2022-09-17T04:58:37.670Z,72851.88
2022-09-17T04:59:09.986Z,72849.88
2022-09-17T04:59:42.654Z,72849.88
2022-09-17T05:00:18.590Z,72851.88
2022-09-17T05:00:50.959Z,72853.88
2022-09-17T05:01:25.948Z,72853.88
2022-09-17T05:01:58.373Z,72853.88
2022-09-17T05:02:30.743Z,72855.88
2022-09-17T05:03:08.277Z,72855.88
2022-09-17T05:03:40.602Z,72853.88
2022-09-17T05:04:12.934Z,72857.88
2022-09-17T05:04:45.225Z,72863.84
2022-09-17T05:05:21.569Z,72869.84
2022-09-17T05:05:53.854Z,72865.84
2022-09-17T05:06:26.144Z,72857.88
2022-09-17T05:07:01.064Z,72859.88
2022-09-17T05:07:33.374Z,72857.88
2022-09-17T05:08:05.903Z,72857.88
2022-09-17T05:08:40.800Z,72857.88
2022-09-17T05:09:13.259Z,72861.88
2022-09-17T05:09:45.520Z,72857.88
2022-09-17T05:10:22.011Z,72857.88
2022-09-17T05:10:54.292Z,72857.88
2022-09-17T05:11:29.216Z,72865.84
2022-09-17T05:12:01.691Z,72857.88
2022-09-17T05:12:34.646Z,72861.88
2022-09-17T05:13:09.733Z,72861.88
2022-09-17T05:13:42.031Z,72863.84
2022-09-17T05:14:14.334Z,72865.84
2022-09-17T05:14:49.269Z,72865.84
2022-09-17T05:15:22.106Z,72865.84
2022-09-17T05:15:55.480Z,72869.84
2022-09-17T05:16:30.688Z,72865.84
2022-09-17T05:17:03.715Z,72869.84
2022-09-17T05:17:36.062Z,72865.84
2022-09-17T05:18:13.811Z,72869.84
2022-09-17T05:18:46.138Z,72865.84
2022-09-17T05:19:18.840Z,72861.88
2022-09-17T05:19:53.785Z,72861.88
2022-09-17T05:20:26.048Z,72869.84
2022-09-17T05:21:00.953Z,72869.84
2022-09-17T05:21:33.379Z,72863.84
2022-09-17T05:22:05.863Z,72861.88
2022-09-17T05:22:44.786Z,72865.84
2022-09-17T05:23:17.880Z,72865.84
2022-09-17T05:23:50.606Z,72869.84
2022-09-17T05:24:25.530Z,72865.84
2022-09-17T05:24:57.823Z,72867.84
2022-09-17T05:25:31.062Z,72865.84
2022-09-17T05:26:05.958Z,72869.84
2022-09-17T05:26:38.294Z,72871.84
2022-09-17T05:27:10.602Z,72867.84
2022-09-17T05:27:45.871Z,72875.84
2022-09-17T05:28:18.129Z,72873.84
2022-09-17T05:28:50.434Z,72873.84
2022-09-17T05:29:25.381Z,72877.84
2022-09-17T05:29:57.654Z,72873.84
2022-09-17T05:30:30.465Z,72873.84
2022-09-17T05:31:05.693Z,72877.84
2022-09-17T05:31:38.216Z,72881.81
2022-09-17T05:32:10.586Z,72877.84
2022-09-17T05:32:45.487Z,72877.84
2022-09-17T05:33:20.507Z,72881.81
2022-09-17T05:33:52.811Z,72885.81
2022-09-17T05:34:27.703Z,72883.81
2022-09-17T05:35:03.583Z,72889.81
2022-09-17T05:35:38.046Z,72889.81
2022-09-17T05:36:12.972Z,72887.81
2022-09-17T05:36:45.251Z,72889.81
2022-09-17T05:37:17.559Z,72893.81
2022-09-17T05:37:52.467Z,72889.81
2022-09-17T05:38:24.887Z,72889.81
2022-09-17T05:38:57.224Z,72893.81
2022-09-17T05:39:32.143Z,72895.78
2022-09-17T05:40:06.127Z,72897.78
2022-09-17T05:40:38.686Z,72903.78
2022-09-17T05:41:13.646Z,72901.78
2022-09-17T05:41:45.914Z,72901.78
2022-09-17T05:42:18.229Z,72905.78
2022-09-17T05:42:53.179Z,72903.78
2022-09-17T05:43:25.606Z,72901.78
2022-09-17T05:43:57.896Z,72913.75
2022-09-17T05:44:32.802Z,72905.78
2022-09-17T05:45:06.239Z,72913.75
2022-09-17T05:45:39.142Z,72911.75
2022-09-17T05:46:14.074Z,72913.75
2022-09-17T05:46:47.104Z,72913.75
2022-09-17T05:47:19.385Z,72913.75
2022-09-17T05:47:57.913Z,72913.75
2022-09-17T05:48:32.915Z,72913.75
2022-09-17T05:49:05.367Z,72921.75
2022-09-17T05:49:40.327Z,72923.75
2022-09-17T05:50:12.592Z,72919.75
2022-09-17T05:50:44.875Z,72921.75
2022-09-17T05:51:19.760Z,72921.75
2022-09-17T05:51:52.073Z,72921.75
2022-09-17T05:52:29.997Z,72929.72
2022-09-17T05:53:05.437Z,72929.72
2022-09-17T05:53:40.876Z,72929.72
2022-09-17T05:54:13.166Z,72937.72
2022-09-17T05:54:45.474Z,72935.72
2022-09-17T05:55:20.823Z,72931.72
2022-09-17T05:55:57.118Z,72937.72
2022-09-17T05:56:29.555Z,72937.72
2022-09-17T05:57:04.720Z,72937.72
2022-09-17T05:57:36.986Z,72937.72
2022-09-17T05:58:10.133Z,72935.72
2022-09-17T05:58:45.083Z,72939.72
2022-09-17T05:59:17.438Z,72945.69
2022-09-17T05:59:49.780Z,72941.72
2022-09-17T06:00:24.671Z,72939.72
2022-09-17T06:00:56.974Z,72939.72
2022-09-17T06:01:29.315Z,72941.72
2022-09-17T06:02:04.488Z,72937.72
2022-09-17T06:02:36.854Z,72945.69
2022-09-17T06:03:09.294Z,72941.72
2022-09-17T06:03:46.939Z,72941.72
2022-09-17T06:04:19.399Z,72943.69
2022-09-17T06:04:51.674Z,72943.69
2022-09-17T06:05:26.677Z,72945.69
2022-09-17T06:06:00.253Z,72945.69
2022-09-17T06:06:36.744Z,72949.69
2022-09-17T06:07:09.473Z,72949.69
2022-09-17T06:07:41.782Z,72947.69
2022-09-17T06:08:16.746Z,72955.69
2022-09-17T06:08:49.114Z,72949.69
2022-09-17T06:09:21.403Z,72949.69
2022-09-17T06:09:56.318Z,72953.69
2022-09-17T06:10:28.586Z,72949.69
2022-09-17T06:11:04.650Z,72951.69
2022-09-17T06:11:39.780Z,72951.69
2022-09-17T06:12:12.050Z,72949.69
2022-09-17T06:12:44.319Z,72953.69
2022-09-17T06:13:19.355Z,72951.69
2022-09-17T06:13:53.723Z,72945.69
2022-09-17T06:14:25.996Z,72949.69
2022-09-17T06:15:01.133Z,72951.69
2022-09-17T06:15:33.426Z,72951.69
2022-09-17T06:16:06.285Z,72953.69
2022-09-17T06:16:41.266Z,72953.69
2022-09-17T06:17:13.593Z,72957.69
2022-09-17T06:17:45.876Z,72949.69
2022-09-17T06:18:21.008Z,72949.69
2022-09-17T06:18:56.006Z,72949.69
2022-09-17T06:19:28.330Z,72945.69
2022-09-17T06:20:03.299Z,72951.69
2022-09-17T06:20:35.612Z,72951.69
2022-09-17T06:21:07.923Z,72949.69
2022-09-17T06:21:42.835Z,72951.69
2022-09-17T06:22:15.127Z,72953.69
2022-09-17T06:22:47.438Z,72953.69
2022-09-17T06:23:22.322Z,72953.69
2022-09-17T06:23:54.696Z,72953.69
2022-09-17T06:24:29.600Z,72949.69
2022-09-17T06:25:03.911Z,72953.69
2022-09-17T06:25:36.271Z,72955.69
2022-09-17T06:26:11.169Z,72945.69
2022-09-17T06:26:43.655Z,72953.69
2022-09-17T06:27:15.930Z,72957.69
2022-09-17T06:27:50.825Z,72953.69
2022-09-17T06:28:23.154Z,72955.69
2022-09-17T06:28:55.461Z,72955.69
2022-09-17T06:29:30.381Z,72957.69
2022-09-17T06:30:02.850Z,72957.69
2022-09-17T06:30:37.071Z,72961.66
2022-09-17T06:31:13.485Z,72959.66
2022-09-17T06:31:46.309Z,72961.66
2022-09-17T06:32:18.631Z,72965.66
2022-09-17T06:32:53.533Z,72963.66
2022-09-17T06:33:26.940Z,72965.66
2022-09-17T06:34:01.993Z,72961.66
2022-09-17T06:34:36.887Z,72961.66
2022-09-17T06:35:10.695Z,72963.66
2022-09-17T06:35:42.971Z,72965.66
2022-09-17T06:36:17.910Z,72965.66
2022-09-17T06:36:50.287Z,72967.66
2022-09-17T06:37:28.055Z,72961.66
2022-09-17T06:38:00.334Z,72969.66
2022-09-17T06:38:36.890Z,72965.66
2022-09-17T06:39:09.701Z,72961.66
2022-09-17T06:39:41.974Z,72965.66
2022-09-17T06:40:17.761Z,72971.66
2022-09-17T06:40:51.406Z,72965.66
2022-09-17T06:41:23.741Z,72965.66
2022-09-17T06:41:58.635Z,72963.66
2022-09-17T06:42:33.811Z,72965.66
2022-09-17T06:43:06.179Z,72963.66
2022-09-17T06:43:41.111Z,72963.66
2022-09-17T06:44:13.394Z,72965.66
2022-09-17T06:44:48.362Z,72969.66
2022-09-17T06:45:20.691Z,72969.66
2022-09-17T06:45:53.301Z,72967.66
2022-09-17T06:46:28.373Z,72965.66
2022-09-17T06:47:00.776Z,72965.66
2022-09-17T06:47:33.091Z,72969.66
2022-09-17T06:48:08.984Z,72969.66
2022-09-17T06:48:41.263Z,72969.66
2022-09-17T06:49:18.777Z,72965.66
2022-09-17T06:49:51.128Z,72969.66
2022-09-17T06:50:23.590Z,72975.63
2022-09-17T06:51:04.095Z,72971.66
2022-09-17T06:51:36.398Z,72971.66
2022-09-17T06:52:11.336Z,72967.66
2022-09-17T06:52:48.737Z,72971.66
2022-09-17T06:53:21.242Z,72967.66
2022-09-17T06:53:56.149Z,72969.66
2022-09-17T06:54:28.418Z,72973.63
2022-09-17T06:55:00.703Z,72973.63
2022-09-17T06:55:35.618Z,72969.66
2022-09-17T06:56:09.311Z,72977.63
2022-09-17T06:56:41.633Z,72977.63
2022-09-17T06:57:16.510Z,72973.63
2022-09-17T06:57:48.819Z,72969.66
2022-09-17T06:58:21.087Z,72973.63